메인 페이지
METAR-TAF:

METAR-TAF

공항 :

클린턴 / Burns Flat, 오클라호마, 미국

위도: 35-21-24N, 경도: 099-12-13W, 고도: 585m

현재 날씨관측

예보는 20분 전, 19:53시(UTC)에 발표되었습니다.
서북서13kt, 순간 최대 풍속 19kt
온도 16°C
습도 31%
기압 1024 hPa
시정: 16.1km
맑음

METAR: KCSM 201953Z 30013G19KT 10SM CLR 16/M01 A3024 RMK AO2 SLP236 T01561006

시각: 15:13 (20:13 UTC)

예보

예보는 2 시간 53분 전, 17:20시(UTC)에 발표되었습니다.
예보 대상 시간: 20일 18시부터 21일 18시까지 (UTC)
11kt
시정: 10km
고도 5000ft 상공 구름 보통
21일 0100시부터 (UTC)
남서5kt
시정: 10km
맑음
21일 1200시부터 (UTC)
7kt
시정: 10km
맑음

TAF: KCSM 201720Z 2018/2118 35011KT P6SM SCT050 FM210100 23005KT P6SM SKC FM211200 01007KT P6SM SKC

4,000개 이상의 공항 관측 자료 및 예보 (METAR 및 TAF 보고).

지도상에서 검색 가능한 기상관측소가 노란 점과 빨간 점으로 표시되어 있습니다.

기상관측소 명을 보려면 표시 위로 마우스를 이동하세요.

날씨 관측과 예보를 보려면 클릭하세요.

지도 변경 : 확대하려면 엑스 표시가 있는 녹색 버튼, 축소하려면 빼기 표시가 있는 녹색 버튼, 다음 페이지의 지도를 보려면 녹색 화살표를 클릭하세요.


METAR-TAF: